windsock image

Welcome to Bigfield Strip.

anemometer image
     

 Help for dials.  
 
Local Met:

Wind:   
10 Min average:  
197 ° / 1.4 kts (1.7)
220° / 2.3

Temperature:  
11.3°C C
Dew Point:  
8.3°C C
QNH:  
Trend:  
1019.3 mb mb
+0.5mb/hr
BigField Strip. This image updates approximately every minute, it can have a two minute delay.  
 

Humidity:  
82 %
Sunrise:   05:55z
Sunset:   17:54z
Updated:  
  UTC
 
   More met info, trends, radar, history etc. available here   

LUTON Metar   EGGW 252020Z AUTO 21004KT 9999 NCD 12/08 Q1020
 
  TAF   2016/09/25 18:15 TAF EGGW 251705Z 2518/2618 24012KT 9999 FEW030 BECMG 2603/2606 17008KT TEMPO 2606/2612 8000 -SHRA TEMPO 2612/2616 6000 SHRA
 
BENSON Metar   EGUB 251950Z AUTO 18004KT 9999 // NCD 10/08 Q1019
 
  TAF   2016/09/25 15:54 TAF TAF EGUB 251445Z 2515/2518 CNL
 
Big Field view 1 icon   Big Field view 2 icon   Big Field view 3 icon   Chart AL3a in PDF icon   Chart AL3a in Word icon

WARNING:
This information is provided by the Airstrip unofficial weather station, DO NOT depend on the data provided here for any purpose.
This page is updated for latest Metars & TAF's every 5 minutes. Refresh the browser to check for the lastest.
Page designed for a minimum browser size of 1024x768.
© Copyright 2016 BigField Strip. This page auto generated 20:41 UTC - 25/09/2016   Contact Us
Valid HTML 4.01 Transitional     Windows uptime: 6 Days 18 Hours 9 Minutes 23 Seconds    WD started: 02:37 19/09/16    Free memory: 1380MB     Valid CSS!